KTLH

Tallahassee International Airport

Tallahassee, Florida, USA
METAR KTLH 241453Z 33005KT 10SM BKN033 BKN250 31/24 A3007 RMK AO2 SLP181 T03060239 53009
Observed Flight Rules
Jun-24 @ 14:53 UTC (12 minutes ago) Visual Flight Rules
Wind Visibility Clouds
330° at 5 knots 10 miles
  • Broken at 3,300' AGL
  • Broken at 25,000' AGL
Temperatures Readings
Current 31°C / 88°F
Dewpoint 24°C / 75°F
Humidity 66%
Altimeter 30.07" Hg
Pressure 1018.1 hPa
Elevation 19
METAR KTLH 241453Z 33005KT 10SM BKN033 BKN250 31/24 A3007 RMK AO2 SLP181 T03060239 53009
Observed Flight Rules
Jun-24 @ 14:53 UTC
(12 minutes ago)
VFR
Wind Visibility
330° at 5 knots 10 miles
Clouds
  • Broken at 3,300' AGL
  • Broken at 25,000' AGL
Temperature Dewpoint
31°C / 88°F 24°C / 75°F
Humidity Altimeter Pressure
66% 30.07" Hg 1018.1 hPa